createdAt,value
2018-08-19T00:03:32.177Z,9.07
2018-08-19T00:09:27.180Z,7.73
2018-08-19T00:15:22.258Z,7.72
2018-08-19T00:21:17.175Z,7.23
2018-08-19T00:27:12.222Z,7.92
2018-08-19T00:33:07.197Z,7.7
2018-08-19T00:39:02.281Z,7.24
2018-08-19T00:44:57.238Z,7.84
2018-08-19T00:50:52.249Z,7.7
2018-08-19T00:56:47.289Z,7.63
2018-08-19T01:02:42.217Z,7.74
2018-08-19T01:08:37.229Z,7.99
2018-08-19T01:14:32.259Z,8.11
2018-08-19T01:20:27.244Z,8.28
2018-08-19T01:26:22.249Z,8.23
2018-08-19T01:32:17.304Z,8.77
2018-08-19T01:38:12.307Z,9.05
2018-08-19T01:44:07.345Z,8.08
2018-08-19T01:50:02.348Z,8
2018-08-19T01:55:57.257Z,8.72
2018-08-19T02:01:52.263Z,11.22
2018-08-19T02:07:47.321Z,8.89
2018-08-19T02:13:42.304Z,8.72
2018-08-19T02:19:37.305Z,9.55
2018-08-19T02:25:32.303Z,8.87
2018-08-19T02:31:27.347Z,8.48
2018-08-19T02:37:22.285Z,9.7
2018-08-19T02:43:17.290Z,9.72
2018-08-19T02:49:12.335Z,11.93
2018-08-19T02:55:07.312Z,10.32
2018-08-19T03:01:02.310Z,9.21
2018-08-19T03:06:57.375Z,10.19
2018-08-19T03:12:52.358Z,10.46
2018-08-19T03:18:47.402Z,11.04
2018-08-19T03:24:42.352Z,14.58
2018-08-19T03:30:37.372Z,10.78
2018-08-19T03:36:32.421Z,8.91
2018-08-19T03:42:27.408Z,9.79
2018-08-19T03:48:22.374Z,10.47
2018-08-19T03:54:17.396Z,9.33
2018-08-19T04:00:12.393Z,10.01
2018-08-19T04:06:07.419Z,11.41
2018-08-19T04:12:02.424Z,9.97
2018-08-19T04:17:57.454Z,10.55
2018-08-19T04:23:52.379Z,10.94
2018-08-19T04:29:47.401Z,11.37
2018-08-19T04:35:42.391Z,10.3
2018-08-19T04:41:37.502Z,9.93
2018-08-19T04:47:32.432Z,10.07
2018-08-19T04:53:27.436Z,11.46
2018-08-19T04:59:22.442Z,9.88
2018-08-19T05:05:17.406Z,10.5
2018-08-19T05:11:12.469Z,11.59
2018-08-19T05:17:07.488Z,10.36
2018-08-19T05:23:02.439Z,9.29
2018-08-19T05:28:57.430Z,9.91
2018-08-19T05:34:52.452Z,11.81
2018-08-19T05:40:47.489Z,9.43
2018-08-19T05:46:42.514Z,9.9
2018-08-19T05:52:37.551Z,10.92
2018-08-19T05:58:32.455Z,13.83
2018-08-19T06:04:27.470Z,11.95
2018-08-19T06:10:22.516Z,13.02
2018-08-19T06:16:17.480Z,13.3
2018-08-19T06:22:12.548Z,13.84
2018-08-19T06:28:07.463Z,12.72
2018-08-19T06:34:02.480Z,14.96
2018-08-19T06:39:57.505Z,12.99
2018-08-19T06:45:52.521Z,12.6
2018-08-19T06:51:47.596Z,12.75
2018-08-19T06:57:42.573Z,11.91
2018-08-19T07:03:37.648Z,14.64
2018-08-19T07:09:32.559Z,12.75
2018-08-19T07:15:27.596Z,10.62
2018-08-19T07:21:22.573Z,11.18
2018-08-19T07:27:17.515Z,11.32
2018-08-19T07:33:12.555Z,10.95
2018-08-19T07:39:07.568Z,14.84
2018-08-19T07:45:02.576Z,10.78
2018-08-19T07:50:57.557Z,11.65
2018-08-19T07:56:52.545Z,11.2
2018-08-19T08:02:47.557Z,12.3
2018-08-19T08:08:42.551Z,12.05
2018-08-19T08:14:37.604Z,11.31
2018-08-19T08:20:32.591Z,11.41
2018-08-19T08:26:27.576Z,11.16
2018-08-19T08:32:22.605Z,10.72
2018-08-19T08:38:17.726Z,11.47
2018-08-19T08:44:12.613Z,11.21
2018-08-19T08:50:07.653Z,13.1
2018-08-19T08:56:02.577Z,11.21
2018-08-19T09:01:57.689Z,11.09
2018-08-19T09:07:52.600Z,9.92
2018-08-19T09:13:47.655Z,10.37
2018-08-19T09:19:42.664Z,11.42
2018-08-19T09:25:37.643Z,10.53
2018-08-19T09:31:32.670Z,13.22
2018-08-19T09:37:27.639Z,11.22
2018-08-19T09:43:22.692Z,12.46
2018-08-19T09:49:17.655Z,12.45
2018-08-19T09:55:12.700Z,11.97
2018-08-19T10:01:07.721Z,10.9
2018-08-19T10:07:02.685Z,10.35
2018-08-19T10:12:57.656Z,10.76
2018-08-19T10:18:52.683Z,10.68
2018-08-19T10:24:47.724Z,9.62
2018-08-19T10:30:42.691Z,9.78
2018-08-19T10:36:37.770Z,9.11
2018-08-19T10:42:32.702Z,9.48
2018-08-19T10:48:27.728Z,8.8
2018-08-19T10:54:22.674Z,9.38
2018-08-19T11:00:17.710Z,8.09
2018-08-19T11:06:12.769Z,7.87
2018-08-19T11:12:07.768Z,7.63
2018-08-19T11:18:02.748Z,6.98
2018-08-19T11:23:57.732Z,6.88
2018-08-19T11:29:52.741Z,7.82
2018-08-19T11:35:47.816Z,6.29
2018-08-19T11:41:42.775Z,5.29
2018-08-19T11:47:37.734Z,6.12
2018-08-19T11:53:32.784Z,6.18
2018-08-19T11:59:27.776Z,5.64
2018-08-19T12:05:22.821Z,5.25
2018-08-19T12:11:17.789Z,5.49
2018-08-19T12:17:13.384Z,5.46
2018-08-19T12:23:07.818Z,5.4
2018-08-19T12:29:02.828Z,6.47
2018-08-19T12:34:57.845Z,5.18
2018-08-19T12:40:52.808Z,5.46
2018-08-19T12:46:47.842Z,4.95
2018-08-19T12:52:42.838Z,5.1
2018-08-19T12:58:37.846Z,4.92
2018-08-19T13:04:32.893Z,6.24
2018-08-19T13:10:27.822Z,4.82
2018-08-19T13:16:22.884Z,5.37
2018-08-19T13:22:17.820Z,5.52
2018-08-19T13:28:12.839Z,4.89
2018-08-19T13:34:07.844Z,5.67
2018-08-19T13:40:02.868Z,5.25
2018-08-19T13:45:57.898Z,5.94
2018-08-19T13:51:52.914Z,6.12
2018-08-19T13:57:47.869Z,5.9
2018-08-19T14:03:42.893Z,5.82
2018-08-19T14:09:37.920Z,5.65
2018-08-19T14:15:32.942Z,5.86
2018-08-19T14:21:27.879Z,5.83
2018-08-19T14:27:22.891Z,5.78
2018-08-19T14:33:17.916Z,6.03
2018-08-19T14:39:12.946Z,5.86
2018-08-19T14:45:07.913Z,6.44
2018-08-19T14:51:02.939Z,6.89
2018-08-19T14:56:57.933Z,6.39
2018-08-19T15:02:52.976Z,7.14
2018-08-19T15:08:47.928Z,6.4
2018-08-19T15:14:42.955Z,6.34
2018-08-19T15:20:38.001Z,6.42
2018-08-19T15:26:33.003Z,6.56
2018-08-19T15:32:28.324Z,6.96
2018-08-19T15:38:22.978Z,6.2
2018-08-19T15:44:17.975Z,6.5
2018-08-19T15:50:12.966Z,6.93
2018-08-19T15:56:07.982Z,6.43
2018-08-19T16:02:02.991Z,6.63
2018-08-19T16:07:58.006Z,7.44
2018-08-19T16:13:52.985Z,7.23
2018-08-19T16:19:48.020Z,6.83
2018-08-19T16:25:43.035Z,7.32
2018-08-19T16:31:38.045Z,7.22
2018-08-19T16:37:33.049Z,7.37
2018-08-19T16:43:28.064Z,7.73
2018-08-19T16:49:23.032Z,7.67
2018-08-19T16:55:18.060Z,8.07
2018-08-19T17:01:13.067Z,7.34
2018-08-19T17:07:08.074Z,9.51
2018-08-19T17:13:03.068Z,8.97
2018-08-19T17:18:58.109Z,8.52
2018-08-19T17:24:53.077Z,9.15
2018-08-19T17:30:48.056Z,9.32
2018-08-19T17:36:43.083Z,9.73
2018-08-19T17:42:38.106Z,9.85
2018-08-19T17:48:33.136Z,9.88
2018-08-19T17:54:28.119Z,12
2018-08-19T18:00:23.100Z,9.28
2018-08-19T18:06:18.195Z,9.33
2018-08-19T18:12:13.095Z,10.79
2018-08-19T18:18:08.266Z,11.53
2018-08-19T18:24:03.098Z,10.25
2018-08-19T18:29:58.137Z,11.11
2018-08-19T18:35:53.172Z,10.36
2018-08-19T18:41:48.158Z,10.87
2018-08-19T18:47:43.128Z,11.88
2018-08-19T18:53:38.137Z,11.41
2018-08-19T18:59:33.190Z,10.63
2018-08-19T19:05:28.140Z,10.76
2018-08-19T19:11:23.216Z,12.97
2018-08-19T19:17:18.170Z,11.81
2018-08-19T19:23:13.176Z,10.75
2018-08-19T19:29:08.191Z,11.18
2018-08-19T19:35:03.173Z,11.99
2018-08-19T19:40:58.218Z,11.85
2018-08-19T19:46:53.177Z,12.95
2018-08-19T19:52:48.203Z,11.17
2018-08-19T19:58:43.203Z,22.63
2018-08-19T20:04:38.227Z,14.73
2018-08-19T20:10:33.225Z,16.03
2018-08-19T20:16:28.192Z,13.93
2018-08-19T20:22:23.206Z,15.09
2018-08-19T20:28:18.249Z,14.22
2018-08-19T20:34:13.308Z,15.08
2018-08-19T20:40:08.266Z,12.86
2018-08-19T20:46:03.271Z,12.6
2018-08-19T20:51:58.247Z,12.28
2018-08-19T20:57:53.293Z,13.41
2018-08-19T21:03:48.253Z,13.97
2018-08-19T21:09:43.259Z,11.75
2018-08-19T21:15:38.277Z,13.51
2018-08-19T21:21:33.273Z,12.46
2018-08-19T21:27:28.289Z,13.44
2018-08-19T21:33:23.296Z,14.9
2018-08-19T21:39:18.305Z,13.25
2018-08-19T21:45:13.269Z,18.6
2018-08-19T21:51:08.282Z,13.99
2018-08-19T21:57:03.280Z,13.16
2018-08-19T22:02:58.327Z,14.12
2018-08-19T22:08:53.325Z,13.61
2018-08-19T22:14:48.317Z,15.65
2018-08-19T22:20:43.313Z,15.91
2018-08-19T22:26:38.319Z,13.76
2018-08-19T22:32:33.312Z,15.69
2018-08-19T22:38:28.358Z,16.21
2018-08-19T22:44:23.381Z,15.66
2018-08-19T22:50:18.365Z,15.7
2018-08-19T22:56:13.359Z,15.54
2018-08-19T23:02:08.392Z,19.84
2018-08-19T23:08:03.372Z,18.45
2018-08-19T23:13:58.427Z,17.18
2018-08-19T23:19:53.368Z,15.63
2018-08-19T23:25:48.397Z,17.62
2018-08-19T23:31:43.430Z,16.59
2018-08-19T23:37:38.402Z,16.23
2018-08-19T23:43:33.497Z,14.9
2018-08-19T23:49:28.394Z,15.66
2018-08-19T23:55:23.400Z,15.97
